Time;durP1;ratioP1;P1;durP2;ratioP2;P2;SDS_P1;SDS_P2;PMS_P1;PMS_P2;Temp;Humidity;BMP_temperature;BMP_pressure;BME280_temperature;BME280_humidity;BME280_pressure;Samples;Min_cycle;Max_cycle;Signal;HPM_P1;HPM_P2
2022/09/10 00:01:33;;;;;;;4.13;1.42;;;;;;;;;;4994288;28;20125;-76
2022/09/10 00:04:00;;;;;;;7.75;1.60;;;;;;;;;;4994052;28;20401;-76
2022/09/10 00:06:26;;;;;;;2.67;1.42;;;;;;;;;;4994070;28;20026;-77
2022/09/10 00:08:56;;;;;;;3.30;1.40;;;;;;;;;;4994861;28;20395;-77
2022/09/10 00:11:23;;;;;;;5.22;1.50;;;;;;;;;;4993525;28;20050;-77
2022/09/10 00:13:49;;;;;;;1.73;1.45;;;;;;;;;;4994422;28;20110;-77
2022/09/10 00:16:17;;;;;;;2.45;1.38;;;;;;;;;;4994409;28;20031;-76
2022/09/10 00:18:43;;;;;;;2.75;1.38;;;;;;;;;;4993789;28;20034;-76
2022/09/10 00:21:11;;;;;;;3.15;1.60;;;;;;;;;;4992652;28;20076;-76
2022/09/10 00:23:37;;;;;;;4.75;1.60;;;;;;;;;;4992682;28;20036;-77
2022/09/10 00:26:21;;;;;;;3.85;1.33;;;;;;;;;;4993739;28;20035;-77
2022/09/10 00:28:48;;;;;;;3.58;1.30;;;;;;;;;;4993704;28;20105;-77
2022/09/10 00:31:13;;;;;;;4.53;1.25;;;;;;;;;;4993821;28;20034;-76
2022/09/10 00:33:39;;;;;;;2.63;1.10;;;;;;;;;;4993605;28;20105;-76
2022/09/10 00:36:13;;;;;;;5.05;1.67;;;;;;;;;;4993552;28;20081;-76
2022/09/10 00:38:38;;;;;;;2.20;1.10;;;;;;;;;;4993737;28;20035;-76
2022/09/10 00:41:05;;;;;;;2.97;1.30;;;;;;;;;;4993620;28;20034;-76
2022/09/10 00:43:52;;;;;;;2.65;1.23;;;;;;;;;;4992879;28;20027;-76
2022/09/10 00:46:30;;;;;;;2.15;1.33;;;;;;;;;;4995130;28;20097;-76
2022/09/10 00:48:57;;;;;;;2.78;1.17;;;;;;;;;;4993740;28;20038;-76
2022/09/10 00:51:25;;;;;;;2.60;1.30;;;;;;;;;;4993722;28;20026;-76
2022/09/10 00:53:50;;;;;;;5.43;1.40;;;;;;;;;;4992269;28;20058;-76
2022/09/10 00:56:16;;;;;;;2.45;1.20;;;;;;;;;;4994000;28;20069;-76
2022/09/10 00:58:42;;;;;;;3.47;1.42;;;;;;;;;;4993538;28;20076;-74
2022/09/10 01:01:07;;;;;;;2.17;1.30;;;;;;;;;;4993747;28;20034;-76
2022/09/10 01:03:33;;;;;;;2.40;1.13;;;;;;;;;;4993350;28;20026;-76
2022/09/10 01:05:58;;;;;;;2.05;1.30;;;;;;;;;;4993359;28;20338;-75
2022/09/10 01:08:26;;;;;;;2.65;1.40;;;;;;;;;;4993528;28;20026;-76
2022/09/10 01:11:30;;;;;;;4.65;1.60;;;;;;;;;;4993380;28;20029;-76
2022/09/10 01:14:20;;;;;;;2.65;1.25;;;;;;;;;;4993630;28;20383;-77
2022/09/10 01:17:02;;;;;;;2.60;1.38;;;;;;;;;;4997317;28;20499;-77
2022/09/10 01:19:57;;;;;;;6.78;1.65;;;;;;;;;;4995961;28;20036;-77
2022/09/10 01:22:44;;;;;;;2.70;1.30;;;;;;;;;;4996944;28;20041;-76
2022/09/10 01:25:39;;;;;;;2.97;1.20;;;;;;;;;;4997216;28;20161;-76
2022/09/10 01:28:13;;;;;;;1.73;1.40;;;;;;;;;;4995807;28;20034;-77
2022/09/10 01:30:43;;;;;;;3.38;1.50;;;;;;;;;;4995968;28;20022;-77
2022/09/10 01:33:30;;;;;;;5.35;1.20;;;;;;;;;;4998007;28;20148;-78
2022/09/10 01:36:00;;;;;;;4.97;1.33;;;;;;;;;;4997258;28;20480;-77
2022/09/10 01:38:34;;;;;;;2.47;1.20;;;;;;;;;;4997368;28;20034;-77
2022/09/10 01:41:00;;;;;;;2.47;1.30;;;;;;;;;;4995799;28;20034;-77
2022/09/10 01:43:25;;;;;;;2.03;1.23;;;;;;;;;;4995639;28;20030;-77
2022/09/10 01:45:50;;;;;;;3.80;1.20;;;;;;;;;;4996726;28;20480;-77
2022/09/10 01:48:34;;;;;;;1.90;1.10;;;;;;;;;;4996858;28;20396;-77
2022/09/10 01:51:28;;;;;;;8.18;1.50;;;;;;;;;;4996618;28;20307;-77
2022/09/10 01:54:29;;;;;;;3.20;1.10;;;;;;;;;;4996847;28;20392;-77
2022/09/10 01:57:09;;;;;;;2.83;1.65;;;;;;;;;;4991455;28;20078;-76
2022/09/10 01:59:42;;;;;;;3.92;1.60;;;;;;;;;;4996600;28;20026;-77
2022/09/10 02:02:43;;;;;;;3.93;1.20;;;;;;;;;;4996405;28;20026;-76
2022/09/10 02:05:10;;;;;;;3.05;1.40;;;;;;;;;;4989634;28;20035;-76
2022/09/10 02:07:36;;;;;;;2.20;1.02;;;;;;;;;;4994958;28;20088;-76
2022/09/10 02:10:04;;;;;;;4.63;1.77;;;;;;;;;;4996563;28;20034;-76
2022/09/10 02:12:30;;;;;;;2.55;1.17;;;;;;;;;;4995857;28;20480;-76
2022/09/10 02:14:56;;;;;;;3.30;1.48;;;;;;;;;;4996020;28;20117;-76
2022/09/10 02:17:25;;;;;;;9.27;1.20;;;;;;;;;;4995736;28;20037;-76
2022/09/10 02:19:52;;;;;;;2.28;1.20;;;;;;;;;;4996153;28;20033;-76
2022/09/10 02:22:19;;;;;;;4.68;1.30;;;;;;;;;;4995941;28;20030;-76
2022/09/10 02:24:44;;;;;;;3.75;1.10;;;;;;;;;;4994548;28;20488;-76
2022/09/10 02:27:12;;;;;;;2.10;1.40;;;;;;;;;;4995301;28;20045;-76
2022/09/10 02:29:38;;;;;;;3.53;1.40;;;;;;;;;;4995225;28;20264;-75
2022/09/10 02:32:08;;;;;;;2.30;1.25;;;;;;;;;;4995981;28;20484;-76
2022/09/10 02:34:35;;;;;;;2.15;1.20;;;;;;;;;;4995663;28;20034;-76
2022/09/10 02:37:01;;;;;;;5.45;1.40;;;;;;;;;;4995525;28;20493;-75
2022/09/10 02:39:27;;;;;;;2.90;1.23;;;;;;;;;;4995804;28;20484;-77
2022/09/10 02:41:52;;;;;;;5.30;1.20;;;;;;;;;;4995926;28;20041;-76
2022/09/10 02:44:17;;;;;;;3.13;1.35;;;;;;;;;;4994753;28;20073;-77
2022/09/10 02:46:43;;;;;;;5.05;1.27;;;;;;;;;;4995396;28;20514;-76
2022/09/10 02:49:09;;;;;;;3.10;1.38;;;;;;;;;;4995729;28;20030;-76
2022/09/10 02:51:35;;;;;;;12.20;2.15;;;;;;;;;;4995325;28;20030;-75
2022/09/10 02:54:01;;;;;;;9.50;2.22;;;;;;;;;;4994020;28;20431;-77
2022/09/10 02:56:26;;;;;;;5.53;1.83;;;;;;;;;;4995127;28;20076;-76
2022/09/10 02:58:51;;;;;;;3.57;1.77;;;;;;;;;;4995149;28;20026;-76
2022/09/10 03:01:19;;;;;;;4.40;1.70;;;;;;;;;;4995157;28;20293;-75
2022/09/10 03:03:49;;;;;;;2.47;1.23;;;;;;;;;;4994817;28;20316;-74
2022/09/10 03:06:14;;;;;;;1.55;1.15;;;;;;;;;;4995020;28;20064;-75
2022/09/10 03:08:40;;;;;;;4.80;1.30;;;;;;;;;;4995516;28;20425;-77
2022/09/10 03:11:06;;;;;;;4.22;1.33;;;;;;;;;;4995095;28;20026;-76
2022/09/10 03:13:31;;;;;;;2.53;1.15;;;;;;;;;;4995122;28;20379;-75
2022/09/10 03:16:03;;;;;;;2.10;1.45;;;;;;;;;;4994721;28;20033;-76
2022/09/10 03:18:30;;;;;;;2.17;1.23;;;;;;;;;;4994807;28;20504;-76
2022/09/10 03:21:14;;;;;;;5.70;1.60;;;;;;;;;;4993548;28;20059;-76
2022/09/10 03:23:40;;;;;;;4.72;1.30;;;;;;;;;;4994991;28;20037;-75
2022/09/10 03:26:07;;;;;;;6.07;1.30;;;;;;;;;;4994468;28;20038;-76
2022/09/10 03:28:32;;;;;;;4.72;1.50;;;;;;;;;;4994607;28;20066;-76
2022/09/10 03:30:58;;;;;;;3.25;1.27;;;;;;;;;;4993277;28;20108;-75
2022/09/10 03:33:24;;;;;;;2.10;1.30;;;;;;;;;;4994433;28;20037;-75
2022/09/10 03:35:53;;;;;;;2.53;1.23;;;;;;;;;;4994364;28;20026;-76
2022/09/10 03:38:18;;;;;;;3.17;1.33;;;;;;;;;;4992235;28;20089;-76
2022/09/10 03:40:44;;;;;;;4.63;1.30;;;;;;;;;;4994415;28;20439;-76
2022/09/10 03:43:09;;;;;;;5.87;1.40;;;;;;;;;;4994500;28;20033;-76
2022/09/10 03:45:34;;;;;;;3.80;1.40;;;;;;;;;;4994431;28;20335;-76
2022/09/10 03:47:59;;;;;;;3.70;1.40;;;;;;;;;;4994430;28;20280;-76
2022/09/10 03:50:25;;;;;;;4.70;1.43;;;;;;;;;;4994269;28;20302;-76
2022/09/10 03:52:50;;;;;;;4.57;1.50;;;;;;;;;;4994492;28;20288;-76
2022/09/10 03:55:16;;;;;;;5.60;1.45;;;;;;;;;;4994698;28;20080;-76
2022/09/10 03:57:41;;;;;;;2.20;1.30;;;;;;;;;;4992814;28;20033;-76
2022/09/10 04:00:10;;;;;;;6.50;1.20;;;;;;;;;;4992918;28;20404;-76
2022/09/10 04:02:36;;;;;;;2.03;1.30;;;;;;;;;;4993964;28;20283;-76
2022/09/10 04:05:02;;;;;;;3.17;1.30;;;;;;;;;;4994142;28;20472;-76
2022/09/10 04:07:27;;;;;;;9.20;2.45;;;;;;;;;;4994203;28;20034;-76
2022/09/10 04:09:52;;;;;;;1.50;1.20;;;;;;;;;;4994621;28;20031;-77
2022/09/10 04:12:17;;;;;;;2.80;1.37;;;;;;;;;;4992684;28;20271;-77
2022/09/10 04:14:44;;;;;;;3.60;1.38;;;;;;;;;;4994451;28;20260;-77
2022/09/10 04:17:09;;;;;;;2.92;1.10;;;;;;;;;;4993913;28;20026;-76
2022/09/10 04:19:35;;;;;;;9.43;1.58;;;;;;;;;;4994634;28;20026;-77
2022/09/10 04:22:00;;;;;;;6.97;1.87;;;;;;;;;;4992647;28;20018;-77
2022/09/10 04:24:25;;;;;;;5.03;2.10;;;;;;;;;;4993735;28;20375;-77
2022/09/10 04:26:51;;;;;;;5.80;2.00;;;;;;;;;;4992397;28;20283;-77
2022/09/10 04:29:16;;;;;;;6.72;1.58;;;;;;;;;;4993712;28;20260;-77
2022/09/10 04:31:41;;;;;;;2.97;1.50;;;;;;;;;;4992457;28;20409;-77
2022/09/10 04:34:07;;;;;;;3.40;1.40;;;;;;;;;;4992391;28;20475;-77
2022/09/10 04:36:32;;;;;;;3.08;1.17;;;;;;;;;;4992586;28;20057;-77
2022/09/10 04:38:57;;;;;;;1.93;1.33;;;;;;;;;;4993714;28;20064;-75
2022/09/10 04:41:23;;;;;;;3.53;1.25;;;;;;;;;;4992208;28;20260;-77
2022/09/10 04:43:48;;;;;;;3.03;1.37;;;;;;;;;;4993473;28;20029;-76
2022/09/10 04:46:13;;;;;;;3.97;1.35;;;;;;;;;;4993506;28;20264;-76
2022/09/10 04:48:38;;;;;;;4.00;1.40;;;;;;;;;;4992306;28;20487;-76
2022/09/10 04:51:04;;;;;;;2.30;1.30;;;;;;;;;;4996628;28;20702;-75
2022/09/10 04:53:30;;;;;;;4.40;1.40;;;;;;;;;;4997459;28;20646;-76
2022/09/10 04:55:55;;;;;;;2.53;1.50;;;;;;;;;;4996559;28;20026;-77
2022/09/10 04:58:21;;;;;;;3.22;1.40;;;;;;;;;;4996294;28;20369;-75
2022/09/10 05:00:46;;;;;;;3.17;1.50;;;;;;;;;;4997638;28;20041;-76
2022/09/10 05:03:12;;;;;;;2.10;1.40;;;;;;;;;;4996022;28;20022;-77
2022/09/10 05:05:38;;;;;;;1.77;1.50;;;;;;;;;;4997523;28;20262;-76
2022/09/10 05:08:04;;;;;;;4.82;1.30;;;;;;;;;;4997149;28;20431;-77
2022/09/10 05:10:30;;;;;;;3.88;1.48;;;;;;;;;;4995983;28;20022;-76
2022/09/10 05:12:55;;;;;;;3.55;1.45;;;;;;;;;;4997222;28;20022;-75
2022/09/10 05:15:21;;;;;;;3.17;1.73;;;;;;;;;;4997171;28;20542;-76
2022/09/10 05:17:46;;;;;;;5.38;1.77;;;;;;;;;;4997076;28;20400;-77
2022/09/10 05:20:12;;;;;;;5.57;1.63;;;;;;;;;;4995885;28;20077;-73
2022/09/10 05:22:37;;;;;;;2.72;1.50;;;;;;;;;;4996966;28;20476;-76
2022/09/10 05:25:03;;;;;;;3.20;1.65;;;;;;;;;;4997075;28;20038;-75
2022/09/10 05:27:28;;;;;;;4.20;1.40;;;;;;;;;;4996441;28;20554;-76
2022/09/10 05:29:53;;;;;;;2.75;1.33;;;;;;;;;;4995483;28;20030;-76
2022/09/10 05:32:18;;;;;;;2.80;1.30;;;;;;;;;;4996372;28;20084;-76
2022/09/10 05:34:47;;;;;;;1.77;1.27;;;;;;;;;;4996435;28;20272;-77
2022/09/10 05:37:16;;;;;;;3.38;1.38;;;;;;;;;;4996302;28;20256;-75
2022/09/10 05:39:42;;;;;;;6.97;1.40;;;;;;;;;;4996587;28;20101;-77
2022/09/10 05:42:07;;;;;;;6.50;1.40;;;;;;;;;;4996118;28;20061;-77
2022/09/10 05:44:33;;;;;;;2.57;1.30;;;;;;;;;;4996559;28;20396;-76
2022/09/10 05:46:58;;;;;;;3.13;1.35;;;;;;;;;;4996116;28;20745;-77
2022/09/10 05:49:24;;;;;;;3.65;1.50;;;;;;;;;;4994743;28;20026;-77
2022/09/10 05:51:49;;;;;;;2.83;1.30;;;;;;;;;;4996197;28;20026;-77
2022/09/10 05:54:15;;;;;;;2.60;1.38;;;;;;;;;;4994555;28;20438;-77
2022/09/10 05:56:40;;;;;;;6.80;1.60;;;;;;;;;;4995971;28;20169;-77
2022/09/10 05:59:05;;;;;;;3.78;1.50;;;;;;;;;;4996148;28;20484;-77
2022/09/10 06:01:31;;;;;;;6.40;1.92;;;;;;;;;;4994736;28;20026;-77
2022/09/10 06:03:57;;;;;;;3.17;1.50;;;;;;;;;;4995125;28;20026;-76
2022/09/10 06:06:22;;;;;;;4.07;1.52;;;;;;;;;;4994793;28;20271;-76
2022/09/10 06:08:51;;;;;;;3.53;1.70;;;;;;;;;;4995438;28;20026;-77
2022/09/10 06:11:16;;;;;;;2.88;1.55;;;;;;;;;;4995508;28;20050;-77
2022/09/10 06:13:41;;;;;;;3.65;1.50;;;;;;;;;;4994120;28;20073;-77
2022/09/10 06:16:08;;;;;;;5.77;1.30;;;;;;;;;;4996052;28;20084;-76
2022/09/10 06:18:33;;;;;;;1.33;1.20;;;;;;;;;;4994228;28;20268;-76
2022/09/10 06:21:07;;;;;;;4.60;1.38;;;;;;;;;;4995725;28;20380;-76
2022/09/10 06:23:35;;;;;;;6.43;1.60;;;;;;;;;;4995685;28;20101;-77
2022/09/10 06:26:09;;;;;;;2.95;2.08;;;;;;;;;;4995298;28;20026;-77
2022/09/10 06:28:35;;;;;;;4.28;1.90;;;;;;;;;;4995462;28;20053;-77
2022/09/10 06:31:03;;;;;;;1.60;1.27;;;;;;;;;;4993947;28;20488;-75
2022/09/10 06:33:28;;;;;;;4.45;1.65;;;;;;;;;;4995151;28;20022;-76
2022/09/10 06:35:58;;;;;;;2.97;1.70;;;;;;;;;;4995432;28;20027;-76
2022/09/10 06:38:27;;;;;;;3.22;1.70;;;;;;;;;;4995540;28;20058;-77
2022/09/10 06:40:54;;;;;;;3.20;1.30;;;;;;;;;;4995114;28;20049;-76
2022/09/10 06:43:22;;;;;;;4.65;0.90;;;;;;;;;;4995001;28;20022;-76
2022/09/10 06:45:48;;;;;;;5.20;1.20;;;;;;;;;;4993490;28;20365;-76
2022/09/10 06:48:17;;;;;;;2.63;1.00;;;;;;;;;;4994867;28;20030;-76
2022/09/10 06:50:56;;;;;;;3.45;0.88;;;;;;;;;;4995033;28;20440;-76
2022/09/10 06:53:22;;;;;;;0.93;0.73;;;;;;;;;;4995049;28;20034;-77
2022/09/10 06:55:51;;;;;;;1.52;0.77;;;;;;;;;;4993662;28;20113;-77
2022/09/10 06:58:19;;;;;;;1.70;1.00;;;;;;;;;;4994770;28;20023;-76
2022/09/10 07:00:46;;;;;;;3.00;1.00;;;;;;;;;;4993531;28;20093;-77
2022/09/10 07:03:14;;;;;;;2.28;0.80;;;;;;;;;;4994819;28;20022;-77
2022/09/10 07:05:39;;;;;;;2.28;0.90;;;;;;;;;;4993285;28;20034;-76
2022/09/10 07:08:05;;;;;;;2.47;0.90;;;;;;;;;;4993283;28;20019;-77
2022/09/10 07:10:30;;;;;;;1.15;0.80;;;;;;;;;;4993817;28;20276;-76
2022/09/10 07:12:55;;;;;;;3.40;0.80;;;;;;;;;;4997889;28;20522;-81
2022/09/10 07:15:21;;;;;;;1.25;0.65;;;;;;;;;;4997351;28;20753;-80
2022/09/10 07:17:46;;;;;;;2.03;0.60;;;;;;;;;;4998335;28;20053;-78
2022/09/10 07:20:11;;;;;;;2.00;0.73;;;;;;;;;;4999706;28;20054;-75
2022/09/10 07:22:38;;;;;;;1.40;0.60;;;;;;;;;;4993600;28;20030;-76
2022/09/10 07:25:05;;;;;;;1.23;0.68;;;;;;;;;;4994990;28;20030;-76
2022/09/10 07:27:32;;;;;;;1.05;0.68;;;;;;;;;;4993172;28;20041;-78
2022/09/10 07:29:57;;;;;;;1.90;0.73;;;;;;;;;;4993623;28;20392;-75
2022/09/10 07:32:22;;;;;;;2.00;0.60;;;;;;;;;;4994678;28;20026;-77
2022/09/10 07:34:47;;;;;;;1.63;0.60;;;;;;;;;;4994741;28;20263;-75
2022/09/10 07:37:14;;;;;;;1.97;0.60;;;;;;;;;;4994723;28;20260;-75
2022/09/10 07:39:40;;;;;;;1.40;0.60;;;;;;;;;;4994966;28;20450;-76
2022/09/10 07:42:05;;;;;;;2.55;0.60;;;;;;;;;;4992991;28;20113;-76
2022/09/10 07:44:31;;;;;;;1.10;0.70;;;;;;;;;;4994475;28;20468;-76
2022/09/10 07:46:56;;;;;;;5.25;0.85;;;;;;;;;;4994410;28;20034;-75
2022/09/10 07:49:21;;;;;;;2.78;0.70;;;;;;;;;;4994546;28;20022;-76
2022/09/10 07:51:46;;;;;;;2.33;0.63;;;;;;;;;;4993006;28;20019;-76
2022/09/10 07:54:16;;;;;;;2.92;0.75;;;;;;;;;;4994684;28;20302;-76
2022/09/10 07:56:41;;;;;;;1.60;0.60;;;;;;;;;;4994522;28;20116;-76
2022/09/10 07:59:06;;;;;;;2.33;0.60;;;;;;;;;;4992979;28;20091;-76
2022/09/10 08:01:31;;;;;;;1.08;0.50;;;;;;;;;;4994746;28;20279;-76
2022/09/10 08:04:00;;;;;;;2.40;1.10;;;;;;;;;;4994023;28;20080;-75
2022/09/10 08:06:25;;;;;;;3.08;0.68;;;;;;;;;;4992714;28;20749;-76
2022/09/10 08:08:51;;;;;;;1.48;0.50;;;;;;;;;;4993888;28;20094;-76
2022/09/10 08:11:17;;;;;;;1.83;0.60;;;;;;;;;;4994473;28;20050;-76
2022/09/10 08:13:45;;;;;;;1.17;0.70;;;;;;;;;;4994301;28;20480;-76
2022/09/10 08:16:13;;;;;;;1.25;0.60;;;;;;;;;;4994775;28;20084;-77
2022/09/10 08:18:39;;;;;;;1.90;0.60;;;;;;;;;;4997217;28;20090;-79
2022/09/10 08:21:07;;;;;;;1.73;0.68;;;;;;;;;;4996696;28;20074;-78
2022/09/10 08:23:33;;;;;;;3.60;0.60;;;;;;;;;;4997539;28;20110;-80
2022/09/10 08:25:58;;;;;;;1.98;0.63;;;;;;;;;;4996067;28;20461;-79
2022/09/10 08:28:26;;;;;;;1.33;0.50;;;;;;;;;;4997213;28;20041;-78
2022/09/10 08:31:05;;;;;;;1.88;0.65;;;;;;;;;;4996947;28;20027;-79
2022/09/10 08:33:32;;;;;;;1.10;0.57;;;;;;;;;;4995620;28;20018;-79
2022/09/10 08:35:58;;;;;;;0.98;0.50;;;;;;;;;;4996698;28;20026;-78
2022/09/10 08:38:25;;;;;;;4.32;0.70;;;;;;;;;;4995719;28;20023;-79
2022/09/10 08:40:51;;;;;;;3.85;0.70;;;;;;;;;;4994544;28;20073;-78
2022/09/10 08:43:23;;;;;;;3.47;1.10;;;;;;;;;;4995816;28;20038;-80
2022/09/10 08:45:49;;;;;;;2.67;0.50;;;;;;;;;;4996086;28;20042;-78
2022/09/10 08:48:22;;;;;;;0.80;0.50;;;;;;;;;;4995508;28;20030;-78
2022/09/10 08:50:54;;;;;;;4.03;0.68;;;;;;;;;;4995344;28;20028;-77
2022/09/10 08:53:31;;;;;;;1.23;0.60;;;;;;;;;;4995309;28;20022;-78
2022/09/10 08:56:05;;;;;;;3.95;0.88;;;;;;;;;;4995266;28;20026;-79
2022/09/10 08:58:38;;;;;;;;;;;;;;;;;;4995920;28;20034;-78
2022/09/10 09:01:05;;;;;;;1.47;0.60;;;;;;;;;;4996036;28;19914;-79
2022/09/10 09:03:35;;;;;;;2.45;0.85;;;;;;;;;;4996204;28;20054;-78
2022/09/10 09:06:09;;;;;;;1.60;0.70;;;;;;;;;;4995268;28;20049;-77
2022/09/10 09:08:53;;;;;;;1.38;0.60;;;;;;;;;;4994614;28;20026;-77
2022/09/10 09:11:47;;;;;;;1.45;0.60;;;;;;;;;;4993444;28;20027;-79
2022/09/10 09:14:32;;;;;;;;;;;;;;;;;;4996938;28;20104;-79
2022/09/10 09:17:07;;;;;;;1.85;0.63;;;;;;;;;;4995168;28;19921;-78
2022/09/10 09:19:51;;;;;;;1.08;0.55;;;;;;;;;;4994838;28;20035;-78
2022/09/10 09:22:28;;;;;;;3.03;0.80;;;;;;;;;;4994940;28;20061;-79
2022/09/10 09:24:59;;;;;;;3.83;0.70;;;;;;;;;;4993759;28;20034;-78
2022/09/10 09:27:30;;;;;;;1.55;0.68;;;;;;;;;;4993253;28;20022;-77
2022/09/10 09:30:01;;;;;;;2.15;0.60;;;;;;;;;;4993606;28;20189;-79
2022/09/10 09:32:29;;;;;;;0.90;0.50;;;;;;;;;;4996090;28;20030;-78
2022/09/10 09:35:31;;;;;;;1.60;0.63;;;;;;;;;;4996129;28;20026;-80
2022/09/10 09:38:05;;;;;;;0.80;0.60;;;;;;;;;;4995716;28;20124;-78
2022/09/10 09:40:39;;;;;;;1.70;0.65;;;;;;;;;;5000082;28;20026;-79
2022/09/10 09:43:11;;;;;;;1.30;0.85;;;;;;;;;;4998259;28;20040;-78
2022/09/10 09:45:42;;;;;;;2.95;0.60;;;;;;;;;;4998493;28;20403;-79
2022/09/10 09:48:11;;;;;;;7.80;0.60;;;;;;;;;;5000296;28;20387;-80
2022/09/10 09:50:41;;;;;;;1.17;0.68;;;;;;;;;;5000617;28;20056;-78
2022/09/10 09:53:08;;;;;;;1.63;0.63;;;;;;;;;;5001180;28;20035;-79
2022/09/10 09:55:39;;;;;;;3.13;0.70;;;;;;;;;;5000002;28;20030;-78
2022/09/10 09:58:19;;;;;;;1.63;0.50;;;;;;;;;;4998573;28;20030;-79
2022/09/10 10:00:46;;;;;;;2.05;0.70;;;;;;;;;;5000265;28;20030;-79
2022/09/10 10:03:25;;;;;;;1.77;0.57;;;;;;;;;;4999694;28;20101;-79
2022/09/10 10:06:00;;;;;;;0.90;0.60;;;;;;;;;;4998680;28;20031;-78
2022/09/10 10:08:33;;;;;;;2.55;0.52;;;;;;;;;;4998190;28;20026;-79
2022/09/10 10:10:58;;;;;;;2.00;0.70;;;;;;;;;;5000686;28;20019;-79
2022/09/10 10:13:24;;;;;;;2.95;0.90;;;;;;;;;;4998944;28;20459;-78
2022/09/10 10:15:49;;;;;;;1.60;0.90;;;;;;;;;;4998714;28;20030;-79
2022/09/10 10:18:27;;;;;;;4.38;0.70;;;;;;;;;;5000007;28;20032;-79
2022/09/10 10:21:11;;;;;;;2.47;0.70;;;;;;;;;;4997174;28;20018;-78
2022/09/10 10:23:37;;;;;;;2.55;0.82;;;;;;;;;;4999583;28;20026;-80
2022/09/10 10:26:21;;;;;;;2.42;0.60;;;;;;;;;;5000852;28;20381;-79
2022/09/10 10:28:52;;;;;;;1.17;0.75;;;;;;;;;;4997011;28;20033;-78
2022/09/10 10:31:18;;;;;;;1.85;0.70;;;;;;;;;;5000244;28;20547;-79
2022/09/10 10:34:08;;;;;;;3.47;0.70;;;;;;;;;;5005567;28;20019;-80
2022/09/10 10:36:52;;;;;;;2.88;0.80;;;;;;;;;;5010242;28;20152;-79
2022/09/10 10:39:25;;;;;;;2.97;0.80;;;;;;;;;;5009567;28;20026;-78
2022/09/10 10:42:03;;;;;;;1.88;0.70;;;;;;;;;;5010490;28;20038;-79
2022/09/10 10:44:38;;;;;;;0.65;0.50;;;;;;;;;;5011095;28;20022;-78
2022/09/10 10:47:27;;;;;;;4.38;0.73;;;;;;;;;;5012053;28;20061;-78
2022/09/10 10:50:15;;;;;;;2.63;0.80;;;;;;;;;;5012662;28;20096;-77
2022/09/10 10:53:07;;;;;;;2.35;0.52;;;;;;;;;;5014288;28;20026;-78
2022/09/10 10:55:50;;;;;;;1.90;0.50;;;;;;;;;;5013800;28;20023;-80
2022/09/10 10:58:27;;;;;;;1.95;0.90;;;;;;;;;;5011180;28;20037;-80
2022/09/10 11:01:04;;;;;;;0.75;0.57;;;;;;;;;;5010108;28;20033;-80
2022/09/10 11:03:56;;;;;;;1.45;0.60;;;;;;;;;;5013617;28;20118;-77
2022/09/10 11:06:24;;;;;;;0.65;0.50;;;;;;;;;;5013209;28;20030;-81
2022/09/10 11:08:56;;;;;;;0.95;0.50;;;;;;;;;;5012844;28;20157;-78
2022/09/10 11:11:27;;;;;;;2.30;0.75;;;;;;;;;;5012915;28;20030;-78
2022/09/10 11:13:57;;;;;;;2.35;0.60;;;;;;;;;;5005757;28;20026;-77
2022/09/10 11:16:28;;;;;;;1.80;0.88;;;;;;;;;;4998467;28;20064;-81
2022/09/10 11:19:16;;;;;;;1.92;0.63;;;;;;;;;;4998725;28;20038;-79
2022/09/10 11:22:02;;;;;;;2.45;1.00;;;;;;;;;;4998482;28;20109;-76
2022/09/10 11:24:36;;;;;;;4.57;1.05;;;;;;;;;;4997218;28;20065;-79
2022/09/10 11:27:07;;;;;;;1.02;0.60;;;;;;;;;;4995826;28;20069;-78
2022/09/10 11:29:48;;;;;;;1.15;0.60;;;;;;;;;;4997735;28;20523;-78
2022/09/10 11:32:42;;;;;;;1.55;0.63;;;;;;;;;;4996200;28;20049;-80
2022/09/10 11:35:26;;;;;;;1.27;0.47;;;;;;;;;;4997202;28;20032;-78
2022/09/10 11:38:15;;;;;;;2.70;0.70;;;;;;;;;;4998700;28;20050;-79
2022/09/10 11:40:45;;;;;;;2.28;0.70;;;;;;;;;;4998876;28;20022;-79
2022/09/10 11:43:13;;;;;;;2.08;0.77;;;;;;;;;;4998584;28;20023;-79
2022/09/10 11:45:47;;;;;;;1.55;0.60;;;;;;;;;;4997011;28;20487;-78
2022/09/10 11:48:26;;;;;;;2.83;0.70;;;;;;;;;;4998048;28;20039;-79
2022/09/10 11:51:01;;;;;;;3.58;0.70;;;;;;;;;;4996802;28;20022;-79
2022/09/10 11:53:29;;;;;;;1.27;0.80;;;;;;;;;;4997331;28;20425;-78
2022/09/10 11:56:13;;;;;;;2.08;0.88;;;;;;;;;;4997319;28;20030;-79
2022/09/10 11:59:10;;;;;;;4.55;0.93;;;;;;;;;;4996628;28;20477;-79
2022/09/10 12:01:50;;;;;;;2.20;0.70;;;;;;;;;;4998486;28;20458;-78
2022/09/10 12:04:36;;;;;;;1.80;0.60;;;;;;;;;;4998032;28;20468;-79
2022/09/10 12:07:31;;;;;;;1.17;0.57;;;;;;;;;;4995829;28;20030;-78
2022/09/10 12:10:30;;;;;;;1.00;0.60;;;;;;;;;;4996399;28;20033;-79
2022/09/10 12:12:56;;;;;;;3.47;0.93;;;;;;;;;;4994859;28;20037;-77
2022/09/10 12:15:23;;;;;;;2.63;0.70;;;;;;;;;;4996589;28;20037;-78
2022/09/10 12:18:13;;;;;;;1.42;0.60;;;;;;;;;;4995755;28;20061;-78
2022/09/10 12:20:49;;;;;;;2.88;0.85;;;;;;;;;;4995561;28;20488;-77
2022/09/10 12:23:19;;;;;;;2.28;0.88;;;;;;;;;;4994977;28;20030;-78
2022/09/10 12:26:05;;;;;;;1.02;0.63;;;;;;;;;;4995247;28;20034;-77
2022/09/10 12:28:52;;;;;;;3.53;0.88;;;;;;;;;;4995972;28;20054;-77
2022/09/10 12:31:21;;;;;;;0.90;0.60;;;;;;;;;;4995923;28;20028;-77
2022/09/10 12:33:46;;;;;;;2.35;0.90;;;;;;;;;;4995338;28;20026;-78
2022/09/10 12:36:24;;;;;;;1.37;0.70;;;;;;;;;;4996173;28;20062;-78
2022/09/10 12:39:22;;;;;;;1.40;0.80;;;;;;;;;;4995963;28;20126;-77
2022/09/10 12:41:48;;;;;;;1.75;0.70;;;;;;;;;;4995052;28;20022;-76
2022/09/10 12:44:45;;;;;;;2.22;0.80;;;;;;;;;;4993383;28;20031;-75
2022/09/10 12:47:16;;;;;;;2.35;0.93;;;;;;;;;;4994695;28;20073;-75
2022/09/10 12:49:57;;;;;;;2.20;0.82;;;;;;;;;;4994822;28;20031;-76
2022/09/10 12:52:44;;;;;;;2.00;0.77;;;;;;;;;;4993319;28;20027;-75
2022/09/10 12:55:20;;;;;;;1.30;0.73;;;;;;;;;;4995804;28;20126;-76
2022/09/10 12:57:57;;;;;;;1.80;0.85;;;;;;;;;;4994958;28;20029;-75
2022/09/10 13:00:24;;;;;;;3.10;1.00;;;;;;;;;;4993794;28;20035;-76
2022/09/10 13:02:57;;;;;;;4.88;0.80;;;;;;;;;;4995291;28;20018;-76
2022/09/10 13:05:46;;;;;;;1.90;0.83;;;;;;;;;;4995203;28;20384;-75
2022/09/10 13:08:14;;;;;;;1.33;0.60;;;;;;;;;;4995383;28;20030;-75
2022/09/10 13:10:43;;;;;;;5.25;1.00;;;;;;;;;;4998340;28;20018;-74
2022/09/10 13:13:37;;;;;;;5.05;0.70;;;;;;;;;;5000200;28;20018;-76
2022/09/10 13:16:05;;;;;;;1.00;0.60;;;;;;;;;;4998754;28;20029;-74
2022/09/10 13:18:35;;;;;;;1.25;0.60;;;;;;;;;;4997960;28;20031;-75
2022/09/10 13:21:22;;;;;;;1.90;0.80;;;;;;;;;;5000353;28;20026;-75
2022/09/10 13:23:52;;;;;;;2.83;0.82;;;;;;;;;;5000492;28;20030;-75
2022/09/10 13:26:27;;;;;;;2.67;0.80;;;;;;;;;;5000117;28;20034;-75
2022/09/10 13:28:55;;;;;;;1.88;0.73;;;;;;;;;;4999348;28;20027;-74
2022/09/10 13:31:31;;;;;;;3.33;0.77;;;;;;;;;;4998690;28;20487;-75
2022/09/10 13:34:10;;;;;;;2.63;0.80;;;;;;;;;;4999469;28;20026;-75
2022/09/10 13:37:08;;;;;;;1.23;0.70;;;;;;;;;;5001146;28;20024;-76
2022/09/10 13:39:45;;;;;;;2.58;0.65;;;;;;;;;;4998230;28;20034;-76
2022/09/10 13:42:47;;;;;;;0.82;0.63;;;;;;;;;;4998264;28;20026;-76
2022/09/10 13:45:37;;;;;;;0.85;0.70;;;;;;;;;;4998991;28;20037;-76
2022/09/10 13:48:16;;;;;;;1.45;0.60;;;;;;;;;;4997729;28;20018;-76
2022/09/10 13:51:29;;;;;;;1.08;0.50;;;;;;;;;;4996121;28;20022;-76
2022/09/10 13:54:06;;;;;;;3.42;0.90;;;;;;;;;;4996350;28;20484;-76
2022/09/10 13:56:32;;;;;;;1.55;0.50;;;;;;;;;;4997670;28;20030;-75
2022/09/10 13:59:00;;;;;;;2.47;0.70;;;;;;;;;;4995907;28;20113;-75
2022/09/10 14:01:49;;;;;;;2.42;0.65;;;;;;;;;;4995786;28;20373;-75
2022/09/10 14:04:31;;;;;;;2.78;0.70;;;;;;;;;;4996183;28;20041;-75
2022/09/10 14:07:14;;;;;;;1.08;0.70;;;;;;;;;;4996074;28;20026;-76
2022/09/10 14:09:45;;;;;;;1.98;0.85;;;;;;;;;;4999840;28;20023;-75
2022/09/10 14:12:14;;;;;;;1.80;0.70;;;;;;;;;;4996889;28;20031;-75
2022/09/10 14:14:46;;;;;;;0.95;0.60;;;;;;;;;;4995148;28;20018;-76
2022/09/10 14:17:24;;;;;;;1.60;0.60;;;;;;;;;;4996776;28;20038;-76
2022/09/10 14:19:57;;;;;;;1.88;0.80;;;;;;;;;;4996733;28;20046;-76
2022/09/10 14:22:27;;;;;;;0.88;0.55;;;;;;;;;;4995570;28;20026;-76
2022/09/10 14:25:01;;;;;;;3.45;0.70;;;;;;;;;;4994890;28;20428;-76
2022/09/10 14:27:37;;;;;;;1.25;0.63;;;;;;;;;;4996021;28;20057;-76
2022/09/10 14:30:29;;;;;;;0.60;0.60;;;;;;;;;;4995987;28;20026;-75
2022/09/10 14:32:54;;;;;;;1.92;0.60;;;;;;;;;;4979182;28;20053;-75
2022/09/10 14:35:41;;;;;;;1.20;0.75;;;;;;;;;;4996093;28;20034;-75
2022/09/10 14:38:23;;;;;;;1.10;0.52;;;;;;;;;;4995934;28;20031;-76
2022/09/10 14:40:48;;;;;;;5.70;0.70;;;;;;;;;;4995311;28;20137;-76
2022/09/10 14:43:25;;;;;;;3.25;0.55;;;;;;;;;;4995771;28;20543;-76
2022/09/10 14:45:52;;;;;;;0.73;0.55;;;;;;;;;;4995896;28;20476;-76
2022/09/10 14:48:35;;;;;;;2.03;0.70;;;;;;;;;;4995577;28;20112;-76
2022/09/10 14:51:09;;;;;;;0.93;0.70;;;;;;;;;;4995979;28;20026;-76
2022/09/10 14:53:34;;;;;;;2.30;1.00;;;;;;;;;;4996309;28;20483;-76
2022/09/10 14:56:29;;;;;;;1.98;0.75;;;;;;;;;;4995223;28;20030;-76
2022/09/10 14:58:57;;;;;;;;;;;;;;;;;;4995934;28;20018;-76
2022/09/10 15:01:23;;;;;;;3.05;0.88;;;;;;;;;;4995204;28;19916;-76
2022/09/10 15:03:48;;;;;;;3.20;0.85;;;;;;;;;;4993828;28;20115;-76
2022/09/10 15:06:13;;;;;;;4.37;0.70;;;;;;;;;;4994943;28;20022;-76
2022/09/10 15:08:40;;;;;;;1.57;0.70;;;;;;;;;;4996149;28;20260;-76
2022/09/10 15:11:05;;;;;;;1.23;0.77;;;;;;;;;;4995012;28;20339;-76